sensor_id;sensor_type;location;lat;lon;timestamp;P1;P2;P0
73517;PMS5003;61766;60.318;25.044;2023-04-25T00:01:34;5;5;
73517;PMS5003;61766;60.318;25.044;2023-04-25T00:03:59;5;5;
73517;PMS5003;61766;60.318;25.044;2023-04-25T00:06:24;5;5;
73517;PMS5003;61766;60.318;25.044;2023-04-25T00:08:49;7;7;
73517;PMS5003;61766;60.318;25.044;2023-04-25T00:11:14;7;7;
73517;PMS5003;61766;60.318;25.044;2023-04-25T00:13:39;5;5;
73517;PMS5003;61766;60.318;25.044;2023-04-25T00:16:04;4;4;
73517;PMS5003;61766;60.318;25.044;2023-04-25T00:18:29;7;7;
73517;PMS5003;61766;60.318;25.044;2023-04-25T00:20:54;7;7;
73517;PMS5003;61766;60.318;25.044;2023-04-25T00:23:19;4;3;
73517;PMS5003;61766;60.318;25.044;2023-04-25T00:25:44;4;4;
73517;PMS5003;61766;60.318;25.044;2023-04-25T00:28:10;5;5;
73517;PMS5003;61766;60.318;25.044;2023-04-25T00:30:35;4;4;
73517;PMS5003;61766;60.318;25.044;2023-04-25T00:33:00;6;6;
73517;PMS5003;61766;60.318;25.044;2023-04-25T00:35:25;7;7;
73517;PMS5003;61766;60.318;25.044;2023-04-25T00:37:50;5;5;
73517;PMS5003;61766;60.318;25.044;2023-04-25T00:40:15;6;6;
73517;PMS5003;61766;60.318;25.044;2023-04-25T00:42:40;5;5;
73517;PMS5003;61766;60.318;25.044;2023-04-25T00:45:06;6;6;
73517;PMS5003;61766;60.318;25.044;2023-04-25T00:47:30;5;5;
73517;PMS5003;61766;60.318;25.044;2023-04-25T00:49:55;5;5;
73517;PMS5003;61766;60.318;25.044;2023-04-25T00:52:20;5;5;
73517;PMS5003;61766;60.318;25.044;2023-04-25T00:54:45;6;6;
73517;PMS5003;61766;60.318;25.044;2023-04-25T00:57:10;5;4;
73517;PMS5003;61766;60.318;25.044;2023-04-25T00:59:36;6;6;
73517;PMS5003;61766;60.318;25.044;2023-04-25T01:02:01;4;4;
73517;PMS5003;61766;60.318;25.044;2023-04-25T01:04:26;6;5;
73517;PMS5003;61766;60.318;25.044;2023-04-25T01:06:51;5;5;
73517;PMS5003;61766;60.318;25.044;2023-04-25T01:09:16;5;5;
73517;PMS5003;61766;60.318;25.044;2023-04-25T01:11:41;7;6;
73517;PMS5003;61766;60.318;25.044;2023-04-25T01:14:06;5;5;
73517;PMS5003;61766;60.318;25.044;2023-04-25T01:16:31;5;5;
73517;PMS5003;61766;60.318;25.044;2023-04-25T01:18:56;5;5;
73517;PMS5003;61766;60.318;25.044;2023-04-25T01:21:21;4;4;
73517;PMS5003;61766;60.318;25.044;2023-04-25T01:23:46;5;5;
73517;PMS5003;61766;60.318;25.044;2023-04-25T01:26:11;5;5;
73517;PMS5003;61766;60.318;25.044;2023-04-25T01:28:36;4;4;
73517;PMS5003;61766;60.318;25.044;2023-04-25T01:31:01;7;7;
73517;PMS5003;61766;60.318;25.044;2023-04-25T01:33:26;6;6;
73517;PMS5003;61766;60.318;25.044;2023-04-25T01:35:51;5;5;
73517;PMS5003;61766;60.318;25.044;2023-04-25T01:38:17;6;6;
73517;PMS5003;61766;60.318;25.044;2023-04-25T01:40:42;6;6;
73517;PMS5003;61766;60.318;25.044;2023-04-25T01:43:07;7;6;
73517;PMS5003;61766;60.318;25.044;2023-04-25T01:45:32;6;6;
73517;PMS5003;61766;60.318;25.044;2023-04-25T01:47:57;6;6;
73517;PMS5003;61766;60.318;25.044;2023-04-25T01:50:22;6;6;
73517;PMS5003;61766;60.318;25.044;2023-04-25T01:52:47;7;7;
73517;PMS5003;61766;60.318;25.044;2023-04-25T01:55:12;6;6;
73517;PMS5003;61766;60.318;25.044;2023-04-25T01:57:37;6;6;
73517;PMS5003;61766;60.318;25.044;2023-04-25T02:00:03;7;7;
73517;PMS5003;61766;60.318;25.044;2023-04-25T02:02:27;5;5;
73517;PMS5003;61766;60.318;25.044;2023-04-25T02:04:52;6;6;
73517;PMS5003;61766;60.318;25.044;2023-04-25T02:07:17;8;7;
73517;PMS5003;61766;60.318;25.044;2023-04-25T02:09:42;4;4;
73517;PMS5003;61766;60.318;25.044;2023-04-25T02:12:09;6;6;
73517;PMS5003;61766;60.318;25.044;2023-04-25T02:14:33;5;5;
73517;PMS5003;61766;60.318;25.044;2023-04-25T02:16:58;7;7;
73517;PMS5003;61766;60.318;25.044;2023-04-25T02:19:23;4;4;
73517;PMS5003;61766;60.318;25.044;2023-04-25T02:21:48;5;5;
73517;PMS5003;61766;60.318;25.044;2023-04-25T02:24:13;6;6;
73517;PMS5003;61766;60.318;25.044;2023-04-25T02:26:38;4;4;
73517;PMS5003;61766;60.318;25.044;2023-04-25T02:29:03;4;4;
73517;PMS5003;61766;60.318;25.044;2023-04-25T02:31:28;5;5;
73517;PMS5003;61766;60.318;25.044;2023-04-25T02:33:53;4;4;
73517;PMS5003;61766;60.318;25.044;2023-04-25T02:36:18;5;5;
73517;PMS5003;61766;60.318;25.044;2023-04-25T02:38:43;7;7;
73517;PMS5003;61766;60.318;25.044;2023-04-25T02:41:08;6;6;
73517;PMS5003;61766;60.318;25.044;2023-04-25T02:43:33;8;8;
73517;PMS5003;61766;60.318;25.044;2023-04-25T02:45:58;5;5;
73517;PMS5003;61766;60.318;25.044;2023-04-25T02:48:23;6;6;
73517;PMS5003;61766;60.318;25.044;2023-04-25T02:50:48;6;6;
73517;PMS5003;61766;60.318;25.044;2023-04-25T02:53:13;7;7;
73517;PMS5003;61766;60.318;25.044;2023-04-25T02:55:39;7;7;
73517;PMS5003;61766;60.318;25.044;2023-04-25T02:58:04;7;6;
73517;PMS5003;61766;60.318;25.044;2023-04-25T03:00:29;7;7;
73517;PMS5003;61766;60.318;25.044;2023-04-25T03:02:55;8;8;
73517;PMS5003;61766;60.318;25.044;2023-04-25T03:05:19;6;6;
73517;PMS5003;61766;60.318;25.044;2023-04-25T03:07:44;5;5;
73517;PMS5003;61766;60.318;25.044;2023-04-25T03:10:09;7;7;
73517;PMS5003;61766;60.318;25.044;2023-04-25T03:12:34;6;6;
73517;PMS5003;61766;60.318;25.044;2023-04-25T03:14:59;6;6;
73517;PMS5003;61766;60.318;25.044;2023-04-25T03:17:24;5;5;
73517;PMS5003;61766;60.318;25.044;2023-04-25T03:19:49;6;6;
73517;PMS5003;61766;60.318;25.044;2023-04-25T03:22:14;7;7;
73517;PMS5003;61766;60.318;25.044;2023-04-25T03:24:39;6;6;
73517;PMS5003;61766;60.318;25.044;2023-04-25T03:27:04;5;4;
73517;PMS5003;61766;60.318;25.044;2023-04-25T03:29:29;5;5;
73517;PMS5003;61766;60.318;25.044;2023-04-25T03:31:55;6;6;
73517;PMS5003;61766;60.318;25.044;2023-04-25T03:34:20;5;5;
73517;PMS5003;61766;60.318;25.044;2023-04-25T03:36:45;7;7;
73517;PMS5003;61766;60.318;25.044;2023-04-25T03:39:11;7;6;
73517;PMS5003;61766;60.318;25.044;2023-04-25T03:41:35;5;5;
73517;PMS5003;61766;60.318;25.044;2023-04-25T03:44:00;6;6;
73517;PMS5003;61766;60.318;25.044;2023-04-25T03:46:25;8;8;
73517;PMS5003;61766;60.318;25.044;2023-04-25T03:48:50;6;6;
73517;PMS5003;61766;60.318;25.044;2023-04-25T03:51:15;4;4;
73517;PMS5003;61766;60.318;25.044;2023-04-25T03:53:40;7;7;
73517;PMS5003;61766;60.318;25.044;2023-04-25T03:56:06;5;5;
73517;PMS5003;61766;60.318;25.044;2023-04-25T03:58:30;4;4;
73517;PMS5003;61766;60.318;25.044;2023-04-25T04:00:55;6;6;
73517;PMS5003;61766;60.318;25.044;2023-04-25T04:03:20;6;5;
73517;PMS5003;61766;60.318;25.044;2023-04-25T04:05:46;4;4;
73517;PMS5003;61766;60.318;25.044;2023-04-25T04:08:11;3;3;
73517;PMS5003;61766;60.318;25.044;2023-04-25T04:10:36;4;4;
73517;PMS5003;61766;60.318;25.044;2023-04-25T04:13:01;5;5;
73517;PMS5003;61766;60.318;25.044;2023-04-25T04:15:26;4;4;
73517;PMS5003;61766;60.318;25.044;2023-04-25T04:17:51;5;5;
73517;PMS5003;61766;60.318;25.044;2023-04-25T04:20:17;3;3;
73517;PMS5003;61766;60.318;25.044;2023-04-25T04:22:41;4;4;
73517;PMS5003;61766;60.318;25.044;2023-04-25T04:25:06;3;3;
73517;PMS5003;61766;60.318;25.044;2023-04-25T04:27:32;4;4;
73517;PMS5003;61766;60.318;25.044;2023-04-25T04:29:56;7;6;
73517;PMS5003;61766;60.318;25.044;2023-04-25T04:32:21;2;2;
73517;PMS5003;61766;60.318;25.044;2023-04-25T04:34:46;5;5;
73517;PMS5003;61766;60.318;25.044;2023-04-25T04:37:11;5;5;
73517;PMS5003;61766;60.318;25.044;2023-04-25T04:39:36;6;5;
73517;PMS5003;61766;60.318;25.044;2023-04-25T04:42:02;5;5;
73517;PMS5003;61766;60.318;25.044;2023-04-25T04:44:27;5;5;
73517;PMS5003;61766;60.318;25.044;2023-04-25T04:46:52;5;5;
73517;PMS5003;61766;60.318;25.044;2023-04-25T04:49:17;6;6;
73517;PMS5003;61766;60.318;25.044;2023-04-25T04:51:42;5;5;
73517;PMS5003;61766;60.318;25.044;2023-04-25T04:54:07;5;5;
73517;PMS5003;61766;60.318;25.044;2023-04-25T04:56:32;4;4;
73517;PMS5003;61766;60.318;25.044;2023-04-25T04:58:57;7;7;
73517;PMS5003;61766;60.318;25.044;2023-04-25T05:01:22;6;6;
73517;PMS5003;61766;60.318;25.044;2023-04-25T05:03:47;7;6;
73517;PMS5003;61766;60.318;25.044;2023-04-25T05:06:12;6;6;
73517;PMS5003;61766;60.318;25.044;2023-04-25T05:08:37;8;8;
73517;PMS5003;61766;60.318;25.044;2023-04-25T05:11:03;10;10;
73517;PMS5003;61766;60.318;25.044;2023-04-25T05:13:28;10;10;
73517;PMS5003;61766;60.318;25.044;2023-04-25T05:15:53;9;9;
73517;PMS5003;61766;60.318;25.044;2023-04-25T05:18:18;12;12;
73517;PMS5003;61766;60.318;25.044;2023-04-25T05:20:43;13;12;
73517;PMS5003;61766;60.318;25.044;2023-04-25T05:23:08;13;12;
73517;PMS5003;61766;60.318;25.044;2023-04-25T05:25:33;18;17;
73517;PMS5003;61766;60.318;25.044;2023-04-25T05:27:59;14;13;
73517;PMS5003;61766;60.318;25.044;2023-04-25T05:30:24;15;14;
73517;PMS5003;61766;60.318;25.044;2023-04-25T05:32:49;16;15;
73517;PMS5003;61766;60.318;25.044;2023-04-25T05:35:14;14;14;
73517;PMS5003;61766;60.318;25.044;2023-04-25T05:37:39;15;14;
73517;PMS5003;61766;60.318;25.044;2023-04-25T05:40:05;19;17;
73517;PMS5003;61766;60.318;25.044;2023-04-25T05:42:30;16;16;
73517;PMS5003;61766;60.318;25.044;2023-04-25T05:44:55;14;14;
73517;PMS5003;61766;60.318;25.044;2023-04-25T05:47:21;17;17;
73517;PMS5003;61766;60.318;25.044;2023-04-25T05:49:46;20;19;
73517;PMS5003;61766;60.318;25.044;2023-04-25T05:52:11;17;17;
73517;PMS5003;61766;60.318;25.044;2023-04-25T05:54:37;19;18;
73517;PMS5003;61766;60.318;25.044;2023-04-25T05:57:02;21;21;
73517;PMS5003;61766;60.318;25.044;2023-04-25T05:59:27;18;17;
73517;PMS5003;61766;60.318;25.044;2023-04-25T06:01:53;22;22;
73517;PMS5003;61766;60.318;25.044;2023-04-25T06:04:18;25;25;
73517;PMS5003;61766;60.318;25.044;2023-04-25T06:06:43;24;24;
73517;PMS5003;61766;60.318;25.044;2023-04-25T06:09:09;22;22;
73517;PMS5003;61766;60.318;25.044;2023-04-25T06:11:34;16;16;
73517;PMS5003;61766;60.318;25.044;2023-04-25T06:14:00;19;19;
73517;PMS5003;61766;60.318;25.044;2023-04-25T06:16:24;21;20;
73517;PMS5003;61766;60.318;25.044;2023-04-25T06:18:49;25;23;
73517;PMS5003;61766;60.318;25.044;2023-04-25T06:21:14;21;19;
73517;PMS5003;61766;60.318;25.044;2023-04-25T06:23:40;21;21;
73517;PMS5003;61766;60.318;25.044;2023-04-25T06:26:06;21;20;
73517;PMS5003;61766;60.318;25.044;2023-04-25T06:28:31;22;22;
73517;PMS5003;61766;60.318;25.044;2023-04-25T06:30:56;22;22;
73517;PMS5003;61766;60.318;25.044;2023-04-25T06:33:22;22;22;
73517;PMS5003;61766;60.318;25.044;2023-04-25T06:35:47;23;23;
73517;PMS5003;61766;60.318;25.044;2023-04-25T06:38:13;22;22;
73517;PMS5003;61766;60.318;25.044;2023-04-25T06:40:38;21;21;
73517;PMS5003;61766;60.318;25.044;2023-04-25T06:43:03;18;18;
73517;PMS5003;61766;60.318;25.044;2023-04-25T06:45:29;24;22;
73517;PMS5003;61766;60.318;25.044;2023-04-25T06:47:54;22;22;
73517;PMS5003;61766;60.318;25.044;2023-04-25T06:50:19;21;20;
73517;PMS5003;61766;60.318;25.044;2023-04-25T06:52:45;22;21;
73517;PMS5003;61766;60.318;25.044;2023-04-25T06:55:10;21;19;
73517;PMS5003;61766;60.318;25.044;2023-04-25T06:57:35;21;21;
73517;PMS5003;61766;60.318;25.044;2023-04-25T07:00:01;18;17;
73517;PMS5003;61766;60.318;25.044;2023-04-25T07:02:26;19;18;
73517;PMS5003;61766;60.318;25.044;2023-04-25T07:04:52;26;23;
73517;PMS5003;61766;60.318;25.044;2023-04-25T07:07:17;23;22;
73517;PMS5003;61766;60.318;25.044;2023-04-25T07:09:43;24;23;
73517;PMS5003;61766;60.318;25.044;2023-04-25T07:12:08;22;20;
73517;PMS5003;61766;60.318;25.044;2023-04-25T07:14:33;19;19;
73517;PMS5003;61766;60.318;25.044;2023-04-25T07:16:59;25;25;
73517;PMS5003;61766;60.318;25.044;2023-04-25T07:19:25;26;25;
73517;PMS5003;61766;60.318;25.044;2023-04-25T07:21:50;21;21;
73517;PMS5003;61766;60.318;25.044;2023-04-25T07:24:16;23;21;
73517;PMS5003;61766;60.318;25.044;2023-04-25T07:26:41;23;21;
73517;PMS5003;61766;60.318;25.044;2023-04-25T07:29:06;23;22;
73517;PMS5003;61766;60.318;25.044;2023-04-25T07:31:31;24;24;
73517;PMS5003;61766;60.318;25.044;2023-04-25T07:33:57;24;23;
73517;PMS5003;61766;60.318;25.044;2023-04-25T07:36:22;21;20;
73517;PMS5003;61766;60.318;25.044;2023-04-25T07:38:47;27;27;
73517;PMS5003;61766;60.318;25.044;2023-04-25T07:41:13;18;17;
73517;PMS5003;61766;60.318;25.044;2023-04-25T07:43:39;22;22;
73517;PMS5003;61766;60.318;25.044;2023-04-25T07:46:04;19;19;
73517;PMS5003;61766;60.318;25.044;2023-04-25T07:48:30;27;27;
73517;PMS5003;61766;60.318;25.044;2023-04-25T07:50:56;22;22;
73517;PMS5003;61766;60.318;25.044;2023-04-25T07:53:21;21;20;
73517;PMS5003;61766;60.318;25.044;2023-04-25T07:55:46;22;22;
73517;PMS5003;61766;60.318;25.044;2023-04-25T07:58:12;18;17;
73517;PMS5003;61766;60.318;25.044;2023-04-25T08:00:38;22;22;
73517;PMS5003;61766;60.318;25.044;2023-04-25T08:03:04;27;26;
73517;PMS5003;61766;60.318;25.044;2023-04-25T08:05:29;19;19;
73517;PMS5003;61766;60.318;25.044;2023-04-25T08:07:54;22;21;
73517;PMS5003;61766;60.318;25.044;2023-04-25T08:10:19;18;18;
73517;PMS5003;61766;60.318;25.044;2023-04-25T08:12:45;23;22;
73517;PMS5003;61766;60.318;25.044;2023-04-25T08:15:11;22;22;
73517;PMS5003;61766;60.318;25.044;2023-04-25T08:17:36;19;19;
73517;PMS5003;61766;60.318;25.044;2023-04-25T08:20:02;22;22;
73517;PMS5003;61766;60.318;25.044;2023-04-25T08:22:29;26;26;
73517;PMS5003;61766;60.318;25.044;2023-04-25T08:24:53;24;24;
73517;PMS5003;61766;60.318;25.044;2023-04-25T08:27:18;25;25;
73517;PMS5003;61766;60.318;25.044;2023-04-25T08:29:44;22;22;
73517;PMS5003;61766;60.318;25.044;2023-04-25T08:32:09;22;22;
73517;PMS5003;61766;60.318;25.044;2023-04-25T08:34:35;23;23;
73517;PMS5003;61766;60.318;25.044;2023-04-25T08:37:00;22;21;
73517;PMS5003;61766;60.318;25.044;2023-04-25T08:39:26;23;22;
73517;PMS5003;61766;60.318;25.044;2023-04-25T08:41:51;24;23;
73517;PMS5003;61766;60.318;25.044;2023-04-25T08:44:17;22;22;
73517;PMS5003;61766;60.318;25.044;2023-04-25T08:46:42;19;19;
73517;PMS5003;61766;60.318;25.044;2023-04-25T08:49:08;21;20;
73517;PMS5003;61766;60.318;25.044;2023-04-25T08:51:33;24;23;
73517;PMS5003;61766;60.318;25.044;2023-04-25T08:54:01;21;21;
73517;PMS5003;61766;60.318;25.044;2023-04-25T08:56:24;24;24;
73517;PMS5003;61766;60.318;25.044;2023-04-25T08:58:49;19;18;
73517;PMS5003;61766;60.318;25.044;2023-04-25T09:01:14;24;23;
73517;PMS5003;61766;60.318;25.044;2023-04-25T09:03:40;26;26;
73517;PMS5003;61766;60.318;25.044;2023-04-25T09:06:05;25;23;
73517;PMS5003;61766;60.318;25.044;2023-04-25T09:08:30;24;24;
73517;PMS5003;61766;60.318;25.044;2023-04-25T09:10:55;22;22;
73517;PMS5003;61766;60.318;25.044;2023-04-25T09:13:24;24;23;
73517;PMS5003;61766;60.318;25.044;2023-04-25T09:15:47;19;19;
73517;PMS5003;61766;60.318;25.044;2023-04-25T09:18:12;19;19;
73517;PMS5003;61766;60.318;25.044;2023-04-25T09:20:41;22;22;
73517;PMS5003;61766;60.318;25.044;2023-04-25T09:23:03;21;20;
73517;PMS5003;61766;60.318;25.044;2023-04-25T09:25:33;20;19;
73517;PMS5003;61766;60.318;25.044;2023-04-25T09:27:54;18;18;
73517;PMS5003;61766;60.318;25.044;2023-04-25T09:32:46;18;18;
73517;PMS5003;61766;60.318;25.044;2023-04-25T09:35:11;20;19;
73517;PMS5003;61766;60.318;25.044;2023-04-25T09:37:37;19;18;
73517;PMS5003;61766;60.318;25.044;2023-04-25T09:40:04;21;19;
73517;PMS5003;61766;60.318;25.044;2023-04-25T09:42:28;18;18;
73517;PMS5003;61766;60.318;25.044;2023-04-25T09:44:54;19;18;
73517;PMS5003;61766;60.318;25.044;2023-04-25T09:47:19;17;17;
73517;PMS5003;61766;60.318;25.044;2023-04-25T09:49:45;17;17;
73517;PMS5003;61766;60.318;25.044;2023-04-25T09:52:13;16;16;
73517;PMS5003;61766;60.318;25.044;2023-04-25T09:54:36;17;17;
73517;PMS5003;61766;60.318;25.044;2023-04-25T09:57:03;21;19;
73517;PMS5003;61766;60.318;25.044;2023-04-25T09:59:27;18;17;
73517;PMS5003;61766;60.318;25.044;2023-04-25T10:01:53;19;19;
73517;PMS5003;61766;60.318;25.044;2023-04-25T10:04:19;16;16;
73517;PMS5003;61766;60.318;25.044;2023-04-25T10:06:44;17;17;
73517;PMS5003;61766;60.318;25.044;2023-04-25T10:09:10;17;17;
73517;PMS5003;61766;60.318;25.044;2023-04-25T10:11:35;17;16;
73517;PMS5003;61766;60.318;25.044;2023-04-25T10:14:01;21;19;
73517;PMS5003;61766;60.318;25.044;2023-04-25T10:16:27;16;16;
73517;PMS5003;61766;60.318;25.044;2023-04-25T10:18:52;17;17;
73517;PMS5003;61766;60.318;25.044;2023-04-25T10:21:17;17;17;
73517;PMS5003;61766;60.318;25.044;2023-04-25T10:23:43;18;17;
73517;PMS5003;61766;60.318;25.044;2023-04-25T10:26:09;15;14;
73517;PMS5003;61766;60.318;25.044;2023-04-25T10:31:01;16;15;
73517;PMS5003;61766;60.318;25.044;2023-04-25T10:33:32;18;18;
73517;PMS5003;61766;60.318;25.044;2023-04-25T10:35:52;14;13;
73517;PMS5003;61766;60.318;25.044;2023-04-25T10:38:18;14;14;
73517;PMS5003;61766;60.318;25.044;2023-04-25T10:40:48;18;18;
73517;PMS5003;61766;60.318;25.044;2023-04-25T10:48:01;16;16;
73517;PMS5003;61766;60.318;25.044;2023-04-25T10:50:27;19;19;
73517;PMS5003;61766;60.318;25.044;2023-04-25T10:52:52;16;16;
73517;PMS5003;61766;60.318;25.044;2023-04-25T10:55:18;15;15;
73517;PMS5003;61766;60.318;25.044;2023-04-25T10:57:44;15;15;
73517;PMS5003;61766;60.318;25.044;2023-04-25T11:00:11;15;15;
73517;PMS5003;61766;60.318;25.044;2023-04-25T11:02:40;16;16;
73517;PMS5003;61766;60.318;25.044;2023-04-25T11:05:00;15;15;
73517;PMS5003;61766;60.318;25.044;2023-04-25T11:07:31;17;17;
73517;PMS5003;61766;60.318;25.044;2023-04-25T11:09:52;18;16;
73517;PMS5003;61766;60.318;25.044;2023-04-25T11:12:17;14;14;
73517;PMS5003;61766;60.318;25.044;2023-04-25T11:14:43;13;13;
73517;PMS5003;61766;60.318;25.044;2023-04-25T11:17:09;14;14;
73517;PMS5003;61766;60.318;25.044;2023-04-25T11:19:35;14;14;
73517;PMS5003;61766;60.318;25.044;2023-04-25T11:22:01;14;14;
73517;PMS5003;61766;60.318;25.044;2023-04-25T11:24:27;13;13;
73517;PMS5003;61766;60.318;25.044;2023-04-25T11:26:52;16;14;
73517;PMS5003;61766;60.318;25.044;2023-04-25T11:29:18;15;14;
73517;PMS5003;61766;60.318;25.044;2023-04-25T11:31:44;12;12;
73517;PMS5003;61766;60.318;25.044;2023-04-25T11:34:09;16;16;
73517;PMS5003;61766;60.318;25.044;2023-04-25T11:36:34;14;14;
73517;PMS5003;61766;60.318;25.044;2023-04-25T11:39:00;13;13;
73517;PMS5003;61766;60.318;25.044;2023-04-25T11:41:26;14;14;
73517;PMS5003;61766;60.318;25.044;2023-04-25T11:43:52;14;14;
73517;PMS5003;61766;60.318;25.044;2023-04-25T11:46:17;15;15;
73517;PMS5003;61766;60.318;25.044;2023-04-25T11:48:43;16;14;
73517;PMS5003;61766;60.318;25.044;2023-04-25T11:51:08;18;17;
73517;PMS5003;61766;60.318;25.044;2023-04-25T11:53:34;16;16;
73517;PMS5003;61766;60.318;25.044;2023-04-25T11:56:00;15;15;
73517;PMS5003;61766;60.318;25.044;2023-04-25T11:58:26;15;15;
73517;PMS5003;61766;60.318;25.044;2023-04-25T12:00:51;12;12;
73517;PMS5003;61766;60.318;25.044;2023-04-25T12:03:17;14;13;
73517;PMS5003;61766;60.318;25.044;2023-04-25T12:05:43;14;14;
73517;PMS5003;61766;60.318;25.044;2023-04-25T12:08:10;15;14;
73517;PMS5003;61766;60.318;25.044;2023-04-25T12:10:36;12;12;
73517;PMS5003;61766;60.318;25.044;2023-04-25T12:13:00;14;14;
73517;PMS5003;61766;60.318;25.044;2023-04-25T12:15:26;13;13;
73517;PMS5003;61766;60.318;25.044;2023-04-25T12:17:51;15;14;
73517;PMS5003;61766;60.318;25.044;2023-04-25T12:20:18;13;13;
73517;PMS5003;61766;60.318;25.044;2023-04-25T12:22:42;18;17;
73517;PMS5003;61766;60.318;25.044;2023-04-25T12:25:08;14;13;
73517;PMS5003;61766;60.318;25.044;2023-04-25T12:27:33;17;16;
73517;PMS5003;61766;60.318;25.044;2023-04-25T12:29:59;13;13;
73517;PMS5003;61766;60.318;25.044;2023-04-25T12:32:25;13;13;
73517;PMS5003;61766;60.318;25.044;2023-04-25T12:34:51;15;15;
73517;PMS5003;61766;60.318;25.044;2023-04-25T12:37:16;15;14;
73517;PMS5003;61766;60.318;25.044;2023-04-25T12:39:42;13;13;
73517;PMS5003;61766;60.318;25.044;2023-04-25T12:42:08;13;13;
73517;PMS5003;61766;60.318;25.044;2023-04-25T12:44:33;16;16;
73517;PMS5003;61766;60.318;25.044;2023-04-25T12:46:59;16;16;
73517;PMS5003;61766;60.318;25.044;2023-04-25T12:49:25;15;15;
73517;PMS5003;61766;60.318;25.044;2023-04-25T12:51:51;13;13;
73517;PMS5003;61766;60.318;25.044;2023-04-25T12:54:16;14;14;
73517;PMS5003;61766;60.318;25.044;2023-04-25T12:56:42;15;15;
73517;PMS5003;61766;60.318;25.044;2023-04-25T12:59:08;11;11;
73517;PMS5003;61766;60.318;25.044;2023-04-25T13:01:33;14;13;
73517;PMS5003;61766;60.318;25.044;2023-04-25T13:03:59;12;12;
73517;PMS5003;61766;60.318;25.044;2023-04-25T13:06:25;14;14;
73517;PMS5003;61766;60.318;25.044;2023-04-25T13:08:51;12;12;
73517;PMS5003;61766;60.318;25.044;2023-04-25T13:11:16;12;12;
73517;PMS5003;61766;60.318;25.044;2023-04-25T13:13:43;14;14;
73517;PMS5003;61766;60.318;25.044;2023-04-25T13:16:08;13;13;
73517;PMS5003;61766;60.318;25.044;2023-04-25T13:18:34;13;12;
73517;PMS5003;61766;60.318;25.044;2023-04-25T13:20:59;12;11;
73517;PMS5003;61766;60.318;25.044;2023-04-25T13:23:26;12;11;
73517;PMS5003;61766;60.318;25.044;2023-04-25T13:25:51;12;12;
73517;PMS5003;61766;60.318;25.044;2023-04-25T13:28:16;13;13;
73517;PMS5003;61766;60.318;25.044;2023-04-25T13:30:42;12;12;
73517;PMS5003;61766;60.318;25.044;2023-04-25T13:33:08;14;12;
73517;PMS5003;61766;60.318;25.044;2023-04-25T13:35:34;14;14;
73517;PMS5003;61766;60.318;25.044;2023-04-25T13:37:59;14;14;
73517;PMS5003;61766;60.318;25.044;2023-04-25T13:40:25;10;10;
73517;PMS5003;61766;60.318;25.044;2023-04-25T13:42:50;15;14;
73517;PMS5003;61766;60.318;25.044;2023-04-25T13:45:16;12;12;
73517;PMS5003;61766;60.318;25.044;2023-04-25T13:47:42;10;10;
73517;PMS5003;61766;60.318;25.044;2023-04-25T13:50:08;11;11;
73517;PMS5003;61766;60.318;25.044;2023-04-25T13:52:33;11;11;
73517;PMS5003;61766;60.318;25.044;2023-04-25T13:54:58;12;11;
73517;PMS5003;61766;60.318;25.044;2023-04-25T13:57:24;14;14;
73517;PMS5003;61766;60.318;25.044;2023-04-25T13:59:49;12;11;
73517;PMS5003;61766;60.318;25.044;2023-04-25T14:02:15;12;12;
73517;PMS5003;61766;60.318;25.044;2023-04-25T14:04:41;15;14;
73517;PMS5003;61766;60.318;25.044;2023-04-25T14:07:07;12;12;
73517;PMS5003;61766;60.318;25.044;2023-04-25T14:09:32;13;13;
73517;PMS5003;61766;60.318;25.044;2023-04-25T14:11:58;9;8;
73517;PMS5003;61766;60.318;25.044;2023-04-25T14:14:24;9;9;
73517;PMS5003;61766;60.318;25.044;2023-04-25T14:16:50;11;11;
73517;PMS5003;61766;60.318;25.044;2023-04-25T14:19:16;12;11;
73517;PMS5003;61766;60.318;25.044;2023-04-25T14:21:41;11;11;
73517;PMS5003;61766;60.318;25.044;2023-04-25T14:24:07;11;10;
73517;PMS5003;61766;60.318;25.044;2023-04-25T14:26:33;12;12;
73517;PMS5003;61766;60.318;25.044;2023-04-25T14:28:58;9;9;
73517;PMS5003;61766;60.318;25.044;2023-04-25T14:31:24;10;9;
73517;PMS5003;61766;60.318;25.044;2023-04-25T14:33:50;10;10;
73517;PMS5003;61766;60.318;25.044;2023-04-25T14:36:15;9;9;
73517;PMS5003;61766;60.318;25.044;2023-04-25T14:38:41;8;8;
73517;PMS5003;61766;60.318;25.044;2023-04-25T14:41:07;12;12;
73517;PMS5003;61766;60.318;25.044;2023-04-25T14:43:33;10;10;
73517;PMS5003;61766;60.318;25.044;2023-04-25T14:45:58;10;10;
73517;PMS5003;61766;60.318;25.044;2023-04-25T14:48:24;9;8;
73517;PMS5003;61766;60.318;25.044;2023-04-25T14:50:50;9;9;
73517;PMS5003;61766;60.318;25.044;2023-04-25T14:53:16;9;9;
73517;PMS5003;61766;60.318;25.044;2023-04-25T14:55:41;9;9;
73517;PMS5003;61766;60.318;25.044;2023-04-25T14:58:07;10;10;
73517;PMS5003;61766;60.318;25.044;2023-04-25T15:00:33;11;11;
73517;PMS5003;61766;60.318;25.044;2023-04-25T15:02:58;13;13;
73517;PMS5003;61766;60.318;25.044;2023-04-25T15:05:24;9;9;
73517;PMS5003;61766;60.318;25.044;2023-04-25T15:07:50;10;10;
73517;PMS5003;61766;60.318;25.044;2023-04-25T15:10:16;9;9;
73517;PMS5003;61766;60.318;25.044;2023-04-25T15:12:41;10;10;
73517;PMS5003;61766;60.318;25.044;2023-04-25T15:15:08;11;9;
73517;PMS5003;61766;60.318;25.044;2023-04-25T15:17:33;10;10;
73517;PMS5003;61766;60.318;25.044;2023-04-25T15:19:58;10;10;
73517;PMS5003;61766;60.318;25.044;2023-04-25T15:22:24;11;11;
73517;PMS5003;61766;60.318;25.044;2023-04-25T15:24:50;10;10;
73517;PMS5003;61766;60.318;25.044;2023-04-25T15:27:15;9;9;
73517;PMS5003;61766;60.318;25.044;2023-04-25T15:29:41;11;10;
73517;PMS5003;61766;60.318;25.044;2023-04-25T15:32:07;11;11;
73517;PMS5003;61766;60.318;25.044;2023-04-25T15:34:32;10;10;
73517;PMS5003;61766;60.318;25.044;2023-04-25T15:36:58;11;11;
73517;PMS5003;61766;60.318;25.044;2023-04-25T15:39:24;11;11;
73517;PMS5003;61766;60.318;25.044;2023-04-25T15:41:50;11;11;
73517;PMS5003;61766;60.318;25.044;2023-04-25T15:44:16;10;10;
73517;PMS5003;61766;60.318;25.044;2023-04-25T15:46:42;10;10;
73517;PMS5003;61766;60.318;25.044;2023-04-25T15:49:07;11;11;
73517;PMS5003;61766;60.318;25.044;2023-04-25T15:51:33;10;10;
73517;PMS5003;61766;60.318;25.044;2023-04-25T15:53:59;10;10;
73517;PMS5003;61766;60.318;25.044;2023-04-25T15:56:25;11;11;
73517;PMS5003;61766;60.318;25.044;2023-04-25T15:58:51;11;11;
73517;PMS5003;61766;60.318;25.044;2023-04-25T16:01:16;10;10;
73517;PMS5003;61766;60.318;25.044;2023-04-25T16:03:42;13;10;
73517;PMS5003;61766;60.318;25.044;2023-04-25T16:06:08;10;10;
73517;PMS5003;61766;60.318;25.044;2023-04-25T16:08:34;12;12;
73517;PMS5003;61766;60.318;25.044;2023-04-25T16:11:00;11;11;